Claypool, IN

7:07 AM EST on March 03, 2015 (GMT -0500)
Fulton County | Change Station
CLOSE
Current Station
Airport
Location: Fulton Cnty AP, Rochester, IN,
Elevation: 791 ft
Nearby Weather Stations
Active Advisory: Winter Weather Advisory

Elev 791 ft 41.07 °N, 86.18 °W | Updated 12 minutes ago

Ice Pellets
Ice Pellets
30 °F
Feels Like 23 °F
N
8
Wind Variable Wind from SE

Today
High -- | Low -- °F
--% Chance of Precip.
Yesterday
High -- | Low -- °F
Precip. -- in
7:15 AM 6:36 PM
Waxing Gibbous, 95% visible
Pressure 30.08 in
Visibility 10.0 miles
Clouds Mostly Cloudy 4400 ft
Windchill 23 °F
Dew Point 25 °F
Humidity 80%
Rainfall 0.06 in
Snow Depth Not available.
UV 0 out of 12
Pollen .40 out of 12
Air Quality Not available.
Flu Activity Not available.
METAR KRCR 031155Z AUTO 14007KT 10SM BKN044 M01/M04 A3008 RMK AO2 P0002

More Conditions Fewer Conditions

Pressure 30.08 in
Visibility 10.0 miles
Clouds Mostly Cloudy 4400 ft
Windchill 23 °F
Dew Point 25 °F
Humidity 80%
Rainfall 0.06 in
Snow Depth Not available.
UV 0 out of 12
Pollen .40 out of 12
Air Quality Not available.
Flu Activity Not available.
METAR KRCR 031155Z AUTO 14007KT 10SM BKN044 M01/M04 A3008 RMK AO2 P0002

More Conditions Fewer Conditions

10-Day Weather Forecast

Almanac

Astronomy

Mar. 03, 2015 Rise Set
Actual Time
Civil Twilight
Nautical Twilight
Astronomical Twilight
Moon
Length of Visible Light
Length of Day
Tomorrow will be .
, % of the Moon is Illuminated

Today's Extremes

State Highs State Lows

Community

WunderPhotos

Upload Photos

1,802,090 photos uploaded!

WunderBlogs® & News

Nearby

Air Quality

  Air Quality AQ Index Pollutant
Not available.

Snow Depth

Station Depth Elevation

Earthquake Activity

City Distance Mag. Time & Date
Minimum magnitude displayed is 2.5.

Coastal Water Temperatures

Place Temperature

Nearby Weather Stations

Winter Weather Advisory
Statement as of 3:53 AM CST on March 03, 2015

... Winter Weather Advisory now in effect until 1 PM EST /noon
CST/ this afternoon...

Hazardous weather...

* freezing rain will spread across the area this morning. Ice
   accumulations around one tenth of an inch are possible.

* A period of light snow and sleet will be possible early this
   morning before becoming all freezing rain.

* As temperatures warm above freezing by late morning or early
   afternoon... icing from freezing rain will end.

Impacts...

* roads... overpasses and intersections will be icy and
   dangerous.

* Sidewalks and driveways will also be icy and dangerous.

* Morning commute will be affected.

Precautionary/preparedness actions...

A Winter Weather Advisory means that periods of snow... sleet... or
freezing rain will cause travel difficulties. Be prepared for
dangerous driving conditions and limited visibility... and use
extra caution while driving.